createdAt,value
2022-10-24T00:02:08.150Z,12.50
2022-10-24T00:04:38.320Z,14.57
2022-10-24T00:07:07.959Z,7.55
2022-10-24T00:09:37.888Z,7.97
2022-10-24T00:12:08.497Z,7.15
2022-10-24T00:14:37.878Z,4.50
2022-10-24T00:17:07.239Z,4.93
2022-10-24T00:19:35.735Z,7.63
2022-10-24T00:22:04.237Z,7.70
2022-10-24T00:24:32.321Z,6.78
2022-10-24T00:27:00.618Z,10.10
2022-10-24T00:29:30.630Z,4.78
2022-10-24T00:31:58.928Z,5.15
2022-10-24T00:34:27.027Z,3.67
2022-10-24T00:36:55.055Z,4.25
2022-10-24T00:39:23.293Z,13.40
2022-10-24T00:41:54.181Z,6.85
2022-10-24T00:44:25.114Z,7.97
2022-10-24T00:46:59.012Z,7.70
2022-10-24T00:49:31.685Z,10.52
2022-10-24T00:54:30.291Z,5.30
2022-10-24T00:57:07.176Z,13.00
2022-10-24T00:59:37.084Z,14.40
2022-10-24T01:02:06.642Z,9.38
2022-10-24T01:04:34.724Z,8.43
2022-10-24T01:07:20.169Z,7.00
2022-10-24T01:10:03.330Z,8.13
2022-10-24T01:12:38.671Z,13.65
2022-10-24T01:15:16.517Z,5.15
2022-10-24T01:17:53.503Z,9.25
2022-10-24T01:21:00.529Z,7.95
2022-10-24T01:23:59.601Z,8.05
2022-10-24T01:26:51.004Z,5.65
2022-10-24T01:29:24.416Z,7.90
2022-10-24T01:31:59.921Z,10.05
2022-10-24T01:34:33.640Z,5.75
2022-10-24T01:37:05.107Z,7.55
2022-10-24T01:39:37.801Z,11.05
2022-10-24T01:44:40.731Z,6.18
2022-10-24T01:47:13.474Z,6.90
2022-10-24T01:49:45.880Z,6.22
2022-10-24T01:52:17.555Z,7.10
2022-10-24T01:54:48.083Z,6.72
2022-10-24T01:57:16.346Z,3.67
2022-10-24T01:59:47.549Z,4.43
2022-10-24T02:02:22.434Z,3.80
2022-10-24T02:04:56.134Z,8.25
2022-10-24T02:07:25.805Z,5.65
2022-10-24T02:09:58.165Z,3.90
2022-10-24T02:12:28.096Z,3.63
2022-10-24T02:15:02.122Z,5.82
2022-10-24T02:17:31.836Z,3.42
2022-10-24T02:20:01.431Z,12.13
2022-10-24T02:22:34.444Z,6.90
2022-10-24T02:25:08.366Z,5.95
2022-10-24T02:27:42.401Z,7.03
2022-10-24T02:30:13.849Z,8.68
2022-10-24T02:32:45.678Z,5.88
2022-10-24T02:35:23.936Z,6.15
2022-10-24T02:37:55.315Z,6.05
2022-10-24T02:40:24.262Z,6.40
2022-10-24T02:42:55.363Z,5.53
2022-10-24T02:45:24.334Z,4.72
2022-10-24T02:48:00.045Z,6.35
2022-10-24T02:50:28.292Z,5.50
2022-10-24T02:52:56.522Z,4.97
2022-10-24T02:55:24.947Z,5.63
2022-10-24T02:57:52.945Z,5.63
2022-10-24T03:00:21.189Z,6.40
2022-10-24T03:02:49.464Z,4.95
2022-10-24T03:05:19.196Z,11.45
2022-10-24T03:07:47.126Z,7.25
2022-10-24T03:10:15.164Z,5.65
2022-10-24T03:12:43.511Z,3.63
2022-10-24T03:15:12.328Z,9.27
2022-10-24T03:17:40.417Z,5.95
2022-10-24T03:20:12.405Z,9.20
2022-10-24T03:22:41.766Z,5.72
2022-10-24T03:25:11.637Z,4.00
2022-10-24T03:27:40.256Z,5.22
2022-10-24T03:30:09.223Z,7.55
2022-10-24T03:32:37.250Z,5.60
2022-10-24T03:35:09.149Z,6.47
2022-10-24T03:37:41.253Z,6.40
2022-10-24T03:40:10.509Z,8.43
2022-10-24T03:42:39.148Z,5.68
2022-10-24T03:45:08.458Z,7.50
2022-10-24T03:47:36.585Z,8.15
2022-10-24T03:50:05.567Z,3.67
2022-10-24T03:52:33.608Z,5.13
2022-10-24T03:55:03.084Z,4.25
2022-10-24T03:57:31.084Z,5.47
2022-10-24T03:59:59.026Z,4.43
2022-10-24T04:02:27.156Z,3.53
2022-10-24T04:04:55.212Z,7.18
2022-10-24T04:07:23.267Z,6.38
2022-10-24T04:09:51.322Z,3.83
2022-10-24T04:12:20.802Z,5.80
2022-10-24T04:14:48.836Z,7.25
2022-10-24T04:17:17.073Z,7.63
2022-10-24T04:19:45.134Z,9.10
2022-10-24T04:22:13.191Z,7.18
2022-10-24T04:24:41.495Z,7.57
2022-10-24T04:27:09.862Z,9.38
2022-10-24T04:29:39.261Z,7.13
2022-10-24T04:32:07.378Z,6.47
2022-10-24T04:34:36.930Z,10.95
2022-10-24T04:37:05.163Z,8.57
2022-10-24T04:39:33.063Z,11.88
2022-10-24T04:42:01.053Z,9.07
2022-10-24T04:44:29.138Z,12.02
2022-10-24T04:46:58.588Z,10.77
2022-10-24T04:49:26.508Z,9.45
2022-10-24T04:51:54.566Z,6.45
2022-10-24T04:54:22.617Z,13.88
2022-10-24T04:56:50.652Z,8.65
2022-10-24T04:59:18.611Z,8.93
2022-10-24T05:01:46.770Z,8.25
2022-10-24T05:04:16.442Z,7.82
2022-10-24T05:06:45.137Z,13.00
2022-10-24T05:09:13.242Z,7.90
2022-10-24T05:11:41.251Z,7.20
2022-10-24T05:14:09.222Z,9.25
2022-10-24T05:16:37.204Z,10.90
2022-10-24T05:19:05.221Z,8.68
2022-10-24T05:21:34.662Z,7.63
2022-10-24T05:24:02.586Z,8.65
2022-10-24T05:26:30.493Z,10.77
2022-10-24T05:28:58.500Z,6.20
2022-10-24T05:31:26.595Z,10.98
2022-10-24T05:33:54.622Z,7.97
2022-10-24T05:36:22.547Z,7.97
2022-10-24T05:38:51.810Z,6.90
2022-10-24T05:41:19.841Z,11.20
2022-10-24T05:43:47.847Z,4.13
2022-10-24T05:46:15.923Z,7.43
2022-10-24T05:48:43.869Z,7.72
2022-10-24T05:51:12.017Z,14.45
2022-10-24T05:53:40.151Z,7.63
2022-10-24T05:56:10.251Z,7.57
2022-10-24T05:58:38.317Z,4.82
2022-10-24T06:01:06.688Z,9.32
2022-10-24T06:03:34.771Z,3.63
2022-10-24T06:06:05.456Z,6.75
2022-10-24T06:08:35.025Z,5.25
2022-10-24T06:11:03.691Z,5.22
2022-10-24T06:13:35.409Z,6.80
2022-10-24T06:18:32.126Z,6.15
2022-10-24T06:21:01.328Z,6.70
2022-10-24T06:23:29.281Z,10.10
2022-10-24T06:25:57.219Z,11.77
2022-10-24T06:28:25.209Z,5.55
2022-10-24T06:30:55.250Z,5.80
2022-10-24T06:33:23.575Z,7.05
2022-10-24T06:35:51.560Z,9.02
2022-10-24T06:38:19.571Z,9.80
2022-10-24T06:40:47.581Z,10.10
2022-10-24T06:43:16.447Z,7.13
2022-10-24T06:45:44.430Z,4.03
2022-10-24T06:48:13.837Z,9.45
2022-10-24T06:50:41.774Z,9.98
2022-10-24T06:53:10.731Z,6.28
2022-10-24T06:55:40.325Z,8.98
2022-10-24T06:58:08.729Z,6.50
2022-10-24T07:00:38.562Z,5.90
2022-10-24T07:03:06.645Z,5.90
2022-10-24T07:05:35.996Z,4.72
2022-10-24T07:08:04.659Z,8.02
2022-10-24T07:10:32.818Z,8.02
2022-10-24T07:13:00.835Z,5.60
2022-10-24T07:15:28.872Z,6.20
2022-10-24T07:17:56.890Z,8.88
2022-10-24T07:20:24.898Z,5.38
2022-10-24T07:22:54.302Z,5.05
2022-10-24T07:25:22.374Z,4.85
2022-10-24T07:27:52.535Z,5.03
2022-10-24T07:30:20.481Z,8.25
2022-10-24T07:32:48.794Z,2.80
2022-10-24T07:35:17.017Z,5.75
2022-10-24T07:37:45.223Z,5.68
2022-10-24T07:40:15.288Z,4.93
2022-10-24T07:42:43.421Z,4.40
2022-10-24T07:45:12.239Z,10.75
2022-10-24T07:47:40.212Z,3.40
2022-10-24T07:50:09.617Z,9.57
2022-10-24T07:52:37.601Z,3.00
2022-10-24T07:55:06.386Z,9.98
2022-10-24T07:57:35.818Z,5.20
2022-10-24T08:00:05.494Z,5.63
2022-10-24T08:02:33.534Z,6.07
2022-10-24T08:05:01.561Z,5.47
2022-10-24T08:07:29.966Z,7.78
2022-10-24T08:09:58.205Z,6.20
2022-10-24T08:12:26.334Z,8.32
2022-10-24T08:14:55.847Z,5.38
2022-10-24T08:17:24.692Z,8.48
2022-10-24T08:19:52.947Z,7.97
2022-10-24T08:22:21.068Z,4.00
2022-10-24T08:24:49.126Z,6.95
2022-10-24T08:27:17.209Z,6.20
2022-10-24T08:29:45.241Z,8.02
2022-10-24T08:32:14.589Z,11.68
2022-10-24T08:34:42.578Z,7.75
2022-10-24T08:37:10.588Z,10.68
2022-10-24T08:39:39.971Z,6.60
2022-10-24T08:42:12.920Z,13.75
2022-10-24T08:44:42.650Z,22.08
2022-10-24T08:47:21.128Z,14.38
2022-10-24T08:49:53.793Z,12.35
2022-10-24T08:54:54.884Z,8.30
2022-10-24T08:57:26.041Z,6.60
2022-10-24T08:59:58.129Z,9.50
2022-10-24T09:02:30.302Z,7.78
2022-10-24T09:05:02.377Z,9.75
2022-10-24T09:07:31.121Z,6.00
2022-10-24T09:10:07.392Z,10.77
2022-10-24T09:12:37.212Z,6.78
2022-10-24T09:15:15.147Z,12.23
2022-10-24T09:17:46.352Z,6.53
2022-10-24T09:20:25.751Z,6.53
2022-10-24T09:22:55.264Z,15.80
2022-10-24T09:25:25.688Z,7.63
2022-10-24T09:27:53.898Z,9.02
2022-10-24T09:30:29.865Z,8.45
2022-10-24T09:33:13.765Z,10.80
2022-10-24T09:35:43.937Z,9.18
2022-10-24T09:38:33.473Z,6.53
2022-10-24T09:41:05.594Z,6.05
2022-10-24T09:43:38.781Z,18.65
2022-10-24T09:46:09.603Z,7.78
2022-10-24T09:48:48.869Z,8.25
2022-10-24T09:51:27.648Z,9.20
2022-10-24T09:54:03.099Z,10.05
2022-10-24T09:56:39.198Z,7.85
2022-10-24T09:59:36.545Z,11.57
2022-10-24T10:02:24.702Z,6.78
2022-10-24T10:05:19.357Z,7.55
2022-10-24T10:07:49.906Z,5.13
2022-10-24T10:10:28.758Z,7.35
2022-10-24T10:13:00.868Z,9.57
2022-10-24T10:15:35.183Z,7.35
2022-10-24T10:18:06.674Z,7.50
2022-10-24T10:20:40.739Z,4.88
2022-10-24T10:23:34.717Z,4.40
2022-10-24T10:26:06.554Z,7.25
2022-10-24T10:28:40.286Z,6.45
2022-10-24T10:31:10.968Z,7.30
2022-10-24T10:33:46.547Z,4.68
2022-10-24T10:36:21.186Z,3.90
2022-10-24T10:38:52.627Z,4.90
2022-10-24T10:41:38.657Z,9.65
2022-10-24T10:44:31.070Z,5.28
2022-10-24T10:47:08.881Z,5.03
2022-10-24T10:49:40.133Z,13.43
2022-10-24T10:52:14.478Z,6.38
2022-10-24T10:55:16.027Z,5.45
2022-10-24T10:57:51.980Z,2.92
2022-10-24T11:00:23.386Z,6.57
2022-10-24T11:03:09.089Z,4.75
2022-10-24T11:05:53.984Z,5.60
2022-10-24T11:08:39.680Z,3.25
2022-10-24T11:11:13.750Z,5.75
2022-10-24T11:13:46.990Z,4.75
2022-10-24T11:16:22.967Z,5.50
2022-10-24T11:18:53.183Z,9.35
2022-10-24T11:21:24.985Z,7.60
2022-10-24T11:23:58.885Z,8.02
2022-10-24T11:26:33.697Z,6.10
2022-10-24T11:29:07.042Z,7.38
2022-10-24T11:31:38.890Z,5.93
2022-10-24T11:34:14.143Z,7.80
2022-10-24T11:36:50.862Z,5.05
2022-10-24T11:39:26.653Z,4.63
2022-10-24T11:42:01.433Z,6.57
2022-10-24T11:44:42.002Z,6.15
2022-10-24T11:47:33.725Z,5.80
2022-10-24T11:50:11.551Z,5.72
2022-10-24T11:52:43.369Z,6.97
2022-10-24T11:55:19.378Z,8.23
2022-10-24T11:57:51.591Z,4.10
2022-10-24T12:00:22.352Z,5.57
2022-10-24T12:03:24.938Z,4.30
2022-10-24T12:06:15.620Z,9.85
2022-10-24T12:09:10.425Z,7.25
2022-10-24T12:12:09.266Z,8.25
2022-10-24T12:14:52.697Z,6.22
2022-10-24T12:17:50.897Z,9.10
2022-10-24T12:20:21.779Z,6.18
2022-10-24T12:22:50.972Z,3.95
2022-10-24T12:25:27.870Z,5.35
2022-10-24T12:28:00.068Z,3.78
2022-10-24T12:30:30.964Z,4.15
2022-10-24T12:33:09.159Z,9.27
2022-10-24T12:35:51.792Z,5.82
2022-10-24T12:39:09.130Z,6.93
2022-10-24T12:41:40.847Z,2.83
2022-10-24T12:44:41.150Z,3.30
2022-10-24T12:47:32.611Z,7.78
2022-10-24T12:50:39.446Z,4.80
2022-10-24T12:53:21.139Z,4.07
2022-10-24T12:56:11.804Z,3.42
2022-10-24T12:58:42.760Z,8.30
2022-10-24T13:01:23.155Z,1.92
2022-10-24T13:04:36.075Z,4.80
2022-10-24T13:07:31.774Z,7.32
2022-10-24T13:10:17.847Z,3.78
2022-10-24T13:13:13.102Z,2.65
2022-10-24T13:15:47.936Z,9.20
2022-10-24T13:18:32.699Z,13.02
2022-10-24T13:21:15.371Z,3.33
2022-10-24T13:23:45.827Z,2.50
2022-10-24T13:29:14.660Z,3.70
2022-10-24T13:31:51.210Z,5.85
2022-10-24T13:34:32.429Z,2.83
2022-10-24T13:37:06.466Z,2.95
2022-10-24T13:39:40.395Z,4.40
2022-10-24T13:42:26.578Z,3.95
2022-10-24T13:45:00.071Z,4.05
2022-10-24T13:47:32.763Z,5.18
2022-10-24T13:52:38.432Z,2.95
2022-10-24T13:55:19.610Z,3.10
2022-10-24T13:57:54.341Z,3.90
2022-10-24T14:00:26.902Z,2.40
2022-10-24T14:02:56.446Z,1.98
2022-10-24T14:05:31.734Z,2.38
2022-10-24T14:08:01.201Z,1.85
2022-10-24T14:10:30.572Z,6.32
2022-10-24T14:12:59.147Z,3.45
2022-10-24T14:15:30.630Z,3.15
2022-10-24T14:18:01.873Z,1.80
2022-10-24T14:20:32.657Z,2.72
2022-10-24T14:23:00.976Z,2.13
2022-10-24T14:25:33.124Z,1.80
2022-10-24T14:28:04.178Z,2.50
2022-10-24T14:30:35.080Z,1.88
2022-10-24T14:33:18.698Z,6.50
2022-10-24T14:35:47.385Z,2.50
2022-10-24T14:38:17.408Z,2.00
2022-10-24T14:40:46.868Z,4.28
2022-10-24T14:43:18.455Z,5.32
2022-10-24T14:46:10.328Z,2.50
2022-10-24T14:48:39.195Z,6.03
2022-10-24T14:51:10.426Z,5.43
2022-10-24T14:53:39.465Z,9.15
2022-10-24T14:56:20.899Z,8.68
2022-10-24T14:58:52.056Z,8.73
2022-10-24T15:01:24.201Z,5.25
2022-10-24T15:03:53.860Z,15.98
2022-10-24T15:06:25.773Z,5.82
2022-10-24T15:09:05.875Z,4.27
2022-10-24T15:11:39.275Z,1.90
2022-10-24T15:14:27.458Z,1.85
2022-10-24T15:16:57.101Z,4.50
2022-10-24T15:19:25.243Z,3.05
2022-10-24T15:22:42.159Z,2.10
2022-10-24T15:25:36.877Z,3.00
2022-10-24T15:28:08.218Z,2.95
2022-10-24T15:30:38.534Z,3.00
2022-10-24T15:33:08.010Z,1.38
2022-10-24T15:35:37.460Z,2.10
2022-10-24T15:38:13.170Z,0.60
2022-10-24T15:40:44.379Z,2.05
2022-10-24T15:43:13.620Z,2.97
2022-10-24T15:45:41.976Z,0.82
2022-10-24T15:48:11.634Z,2.55
2022-10-24T15:50:45.267Z,3.22
2022-10-24T15:53:18.318Z,1.27
2022-10-24T15:55:46.520Z,2.67
2022-10-24T15:58:15.990Z,2.13
2022-10-24T16:00:44.848Z,1.02
2022-10-24T16:03:17.596Z,1.63
2022-10-24T16:08:18.710Z,2.80
2022-10-24T16:10:49.010Z,1.02
2022-10-24T16:13:18.250Z,3.22
2022-10-24T16:15:46.326Z,2.00
2022-10-24T16:18:16.305Z,2.00
2022-10-24T16:20:44.568Z,1.55
2022-10-24T16:23:16.861Z,2.85
2022-10-24T16:25:45.638Z,2.83
2022-10-24T16:28:13.632Z,1.92
2022-10-24T16:30:43.247Z,1.60
2022-10-24T16:33:12.321Z,2.45
2022-10-24T16:35:42.015Z,0.80
2022-10-24T16:38:10.623Z,1.15
2022-10-24T16:43:09.261Z,1.50
2022-10-24T16:45:37.477Z,1.48
2022-10-24T16:48:05.905Z,3.58
2022-10-24T16:50:33.995Z,2.20
2022-10-24T16:53:06.815Z,0.77
2022-10-24T16:55:34.893Z,2.53
2022-10-24T16:58:03.001Z,1.30
2022-10-24T17:00:31.331Z,2.75
2022-10-24T17:02:59.559Z,2.05
2022-10-24T17:05:29.064Z,1.92
2022-10-24T17:08:20.265Z,1.77
2022-10-24T17:10:48.563Z,3.40
2022-10-24T17:13:16.545Z,2.00
2022-10-24T17:15:44.680Z,5.05
2022-10-24T17:18:13.481Z,1.65
2022-10-24T17:20:44.062Z,2.00
2022-10-24T17:23:14.332Z,1.20
2022-10-24T17:25:45.643Z,3.47
2022-10-24T17:28:15.340Z,3.03
2022-10-24T17:30:44.371Z,1.20
2022-10-24T17:33:12.718Z,1.77
2022-10-24T17:35:46.729Z,1.35
2022-10-24T17:38:30.334Z,1.30
2022-10-24T17:41:04.493Z,1.58
2022-10-24T17:43:32.947Z,2.67
2022-10-24T17:46:01.341Z,1.40
2022-10-24T17:48:29.473Z,1.60
2022-10-24T17:50:58.846Z,1.02
2022-10-24T17:53:26.930Z,1.33
2022-10-24T17:55:54.880Z,0.77
2022-10-24T17:58:25.554Z,1.88
2022-10-24T18:00:53.647Z,3.33
2022-10-24T18:03:21.847Z,0.82
2022-10-24T18:05:49.836Z,3.50
2022-10-24T18:08:17.853Z,2.28
2022-10-24T18:10:45.926Z,1.55
2022-10-24T18:13:14.021Z,3.17
2022-10-24T18:15:43.436Z,2.22
2022-10-24T18:18:11.667Z,5.10
2022-10-24T18:20:39.666Z,2.20
2022-10-24T18:23:07.628Z,1.10
2022-10-24T18:25:35.556Z,0.90
2022-10-24T18:28:03.638Z,0.95
2022-10-24T18:30:31.605Z,1.05
2022-10-24T18:33:01.038Z,1.65
2022-10-24T18:35:33.009Z,3.25
2022-10-24T18:38:02.009Z,4.57
2022-10-24T18:40:33.317Z,1.95
2022-10-24T18:43:05.320Z,0.70
2022-10-24T18:45:34.325Z,1.73
2022-10-24T18:48:04.578Z,3.47
2022-10-24T18:50:32.741Z,1.40
2022-10-24T18:53:05.741Z,2.20
2022-10-24T18:55:35.714Z,1.63
2022-10-24T18:58:04.692Z,0.88
2022-10-24T19:00:37.920Z,6.97
2022-10-24T19:03:18.307Z,2.55
2022-10-24T19:05:51.943Z,3.33
2022-10-24T19:08:25.217Z,1.65
2022-10-24T19:10:56.291Z,1.98
2022-10-24T19:13:25.372Z,3.40
2022-10-24T19:15:57.895Z,4.00
2022-10-24T19:18:29.659Z,1.65
2022-10-24T19:20:57.637Z,1.05
2022-10-24T19:23:25.674Z,2.15
2022-10-24T19:25:54.019Z,0.90
2022-10-24T19:28:22.229Z,0.88
2022-10-24T19:30:50.340Z,1.52
2022-10-24T19:33:18.709Z,0.85
2022-10-24T19:35:48.691Z,2.97
2022-10-24T19:38:17.501Z,0.82
2022-10-24T19:40:47.489Z,1.48
2022-10-24T19:43:15.523Z,0.70
2022-10-24T19:45:50.118Z,2.92
2022-10-24T19:48:18.896Z,0.30
2022-10-24T19:50:48.313Z,0.93
2022-10-24T19:53:16.531Z,1.10
2022-10-24T19:55:44.581Z,0.80
2022-10-24T19:58:13.793Z,1.35
2022-10-24T20:00:42.797Z,1.23
2022-10-24T20:03:10.795Z,1.73
2022-10-24T20:05:38.892Z,1.70
2022-10-24T20:08:08.309Z,2.45
2022-10-24T20:10:36.352Z,2.35
2022-10-24T20:13:04.393Z,0.93
2022-10-24T20:15:32.506Z,1.80
2022-10-24T20:18:00.566Z,0.93
2022-10-24T20:20:28.635Z,1.40
2022-10-24T20:22:56.732Z,1.52
2022-10-24T20:25:26.090Z,2.97
2022-10-24T20:27:54.025Z,1.75
2022-10-24T20:30:41.660Z,1.15
2022-10-24T20:33:29.980Z,4.68
2022-10-24T20:36:18.744Z,1.42
2022-10-24T20:38:46.813Z,3.90
2022-10-24T20:41:16.232Z,0.70
2022-10-24T20:43:44.526Z,2.05
2022-10-24T20:46:12.669Z,2.75
2022-10-24T20:48:40.713Z,2.60
2022-10-24T20:51:10.293Z,1.85
2022-10-24T20:53:39.167Z,2.47
2022-10-24T20:56:08.981Z,3.00
2022-10-24T20:58:40.822Z,2.50
2022-10-24T21:01:09.750Z,1.50
2022-10-24T21:03:38.009Z,2.45
2022-10-24T21:06:07.205Z,1.40
2022-10-24T21:08:35.170Z,4.03
2022-10-24T21:11:06.842Z,0.80
2022-10-24T21:13:34.950Z,1.00
2022-10-24T21:16:04.280Z,2.20
2022-10-24T21:18:32.929Z,1.00
2022-10-24T21:21:06.282Z,2.28
2022-10-24T21:23:34.314Z,2.28
2022-10-24T21:26:03.661Z,3.80
2022-10-24T21:28:31.573Z,1.23
2022-10-24T21:31:06.417Z,1.98
2022-10-24T21:33:35.143Z,3.75
2022-10-24T21:36:06.699Z,1.98
2022-10-24T21:38:34.721Z,2.35
2022-10-24T21:41:03.069Z,3.35
2022-10-24T21:43:33.038Z,2.25
2022-10-24T21:46:08.206Z,0.60
2022-10-24T21:48:37.010Z,3.53
2022-10-24T21:51:07.318Z,0.82
2022-10-24T21:53:39.722Z,0.50
2022-10-24T21:56:09.129Z,1.40
2022-10-24T21:58:37.169Z,1.65
2022-10-24T22:01:12.175Z,1.70
2022-10-24T22:03:40.630Z,0.85
2022-10-24T22:06:10.165Z,1.25
2022-10-24T22:08:38.169Z,1.20
2022-10-24T22:11:09.651Z,2.33
2022-10-24T22:13:38.273Z,2.53
2022-10-24T22:16:07.511Z,1.15
2022-10-24T22:18:37.098Z,2.92
2022-10-24T22:21:07.111Z,7.45
2022-10-24T22:23:35.520Z,7.15
2022-10-24T22:26:03.552Z,2.08
2022-10-24T22:28:31.892Z,2.95
2022-10-24T22:31:00.357Z,4.15
2022-10-24T22:33:34.563Z,5.03
2022-10-24T22:36:07.812Z,3.30
2022-10-24T22:38:36.271Z,2.25
2022-10-24T22:41:04.756Z,1.98
2022-10-24T22:43:34.415Z,1.15
2022-10-24T22:46:12.342Z,1.55
2022-10-24T22:48:45.333Z,2.42
2022-10-24T22:51:17.307Z,0.90
2022-10-24T22:53:45.746Z,2.00
2022-10-24T22:56:17.405Z,2.70
2022-10-24T22:58:46.673Z,3.50
2022-10-24T23:01:24.157Z,5.80
2022-10-24T23:04:25.173Z,2.22
2022-10-24T23:07:26.652Z,1.40
2022-10-24T23:09:56.065Z,0.73
2022-10-24T23:12:24.592Z,1.63
2022-10-24T23:14:53.275Z,2.42
2022-10-24T23:17:25.006Z,2.42
2022-10-24T23:19:54.345Z,1.83
2022-10-24T23:22:26.460Z,2.72
2022-10-24T23:24:56.393Z,1.20
2022-10-24T23:27:33.855Z,1.13
2022-10-24T23:30:02.922Z,1.33
2022-10-24T23:32:51.170Z,3.47
2022-10-24T23:35:39.284Z,4.13
2022-10-24T23:38:11.778Z,2.38
2022-10-24T23:40:41.530Z,1.25
2022-10-24T23:43:16.981Z,3.15
2022-10-24T23:45:51.380Z,1.42
2022-10-24T23:48:26.879Z,5.85
2022-10-24T23:51:00.688Z,3.83
2022-10-24T23:53:40.897Z,1.50
2022-10-24T23:56:12.521Z,3.33
2022-10-24T23:58:40.429Z,4.00
